sensor_id;sensor_type;location;lat;lon;timestamp;temperature;humidity
72602;DHT22;60644;55.858;37.390;2022-12-15T00:00:09;-3.56;73.17
72602;DHT22;60644;55.858;37.390;2022-12-15T00:02:53;-3.63;73.40
72602;DHT22;60644;55.858;37.390;2022-12-15T00:05:37;-3.57;73.48
72602;DHT22;60644;55.858;37.390;2022-12-15T00:08:21;-3.55;74.04
72602;DHT22;60644;55.858;37.390;2022-12-15T00:11:06;-3.52;73.54
72602;DHT22;60644;55.858;37.390;2022-12-15T00:13:50;-3.49;73.35
72602;DHT22;60644;55.858;37.390;2022-12-15T00:16:34;-3.39;73.12
72602;DHT22;60644;55.858;37.390;2022-12-15T00:19:18;-3.39;72.73
72602;DHT22;60644;55.858;37.390;2022-12-15T00:22:04;-3.42;72.76
72602;DHT22;60644;55.858;37.390;2022-12-15T00:24:48;-3.46;73.07
72602;DHT22;60644;55.858;37.390;2022-12-15T00:27:32;-3.40;73.07
72602;DHT22;60644;55.858;37.390;2022-12-15T00:30:17;-3.33;72.93
72602;DHT22;60644;55.858;37.390;2022-12-15T00:33:09;-3.24;72.76
72602;DHT22;60644;55.858;37.390;2022-12-15T00:35:54;-3.20;72.66
72602;DHT22;60644;55.858;37.390;2022-12-15T00:38:38;-3.20;72.54
72602;DHT22;60644;55.858;37.390;2022-12-15T00:41:17;-3.21;72.77
72602;DHT22;60644;55.858;37.390;2022-12-15T00:43:43;-3.17;72.72
72602;DHT22;60644;55.858;37.390;2022-12-15T00:46:09;-3.18;72.65
72602;DHT22;60644;55.858;37.390;2022-12-15T00:48:54;-3.15;72.64
72602;DHT22;60644;55.858;37.390;2022-12-15T00:51:20;-3.24;72.90
72602;DHT22;60644;55.858;37.390;2022-12-15T00:53:46;-3.24;72.96
72602;DHT22;60644;55.858;37.390;2022-12-15T00:56:31;-3.24;73.18
72602;DHT22;60644;55.858;37.390;2022-12-15T00:59:16;-3.25;73.12
72602;DHT22;60644;55.858;37.390;2022-12-15T01:02:01;-3.30;73.19
72602;DHT22;60644;55.858;37.390;2022-12-15T01:04:46;-3.33;73.44
72602;DHT22;60644;55.858;37.390;2022-12-15T01:07:30;-3.36;73.54
72602;DHT22;60644;55.858;37.390;2022-12-15T01:10:15;-3.43;73.91
72602;DHT22;60644;55.858;37.390;2022-12-15T01:12:59;-3.37;73.96
72602;DHT22;60644;55.858;37.390;2022-12-15T01:15:43;-3.36;74.26
72602;DHT22;60644;55.858;37.390;2022-12-15T01:18:28;-3.39;74.32
72602;DHT22;60644;55.858;37.390;2022-12-15T01:21:12;-3.38;74.11
72602;DHT22;60644;55.858;37.390;2022-12-15T01:23:40;-3.46;74.09
72602;DHT22;60644;55.858;37.390;2022-12-15T01:26:06;-3.41;74.06
72602;DHT22;60644;55.858;37.390;2022-12-15T01:28:33;-3.42;74.00
72602;DHT22;60644;55.858;37.390;2022-12-15T01:30:59;-3.39;74.02
72602;DHT22;60644;55.858;37.390;2022-12-15T01:33:25;-3.42;74.26
72602;DHT22;60644;55.858;37.390;2022-12-15T01:35:55;-3.46;74.44
72602;DHT22;60644;55.858;37.390;2022-12-15T01:38:21;-3.41;74.37
72602;DHT22;60644;55.858;37.390;2022-12-15T01:41:06;-3.45;74.40
72602;DHT22;60644;55.858;37.390;2022-12-15T01:43:35;-3.45;74.42
72602;DHT22;60644;55.858;37.390;2022-12-15T01:46:10;-3.47;74.60
72602;DHT22;60644;55.858;37.390;2022-12-15T01:48:45;-3.50;74.72
72602;DHT22;60644;55.858;37.390;2022-12-15T01:51:46;-3.48;74.52
72602;DHT22;60644;55.858;37.390;2022-12-15T01:54:21;-3.43;74.41
72602;DHT22;60644;55.858;37.390;2022-12-15T01:56:54;-3.51;74.60
72602;DHT22;60644;55.858;37.390;2022-12-15T01:59:26;-3.48;74.64
72602;DHT22;60644;55.858;37.390;2022-12-15T02:01:53;-3.48;74.57
72602;DHT22;60644;55.858;37.390;2022-12-15T02:04:21;-3.51;74.57
72602;DHT22;60644;55.858;37.390;2022-12-15T02:06:47;-3.43;74.51
72602;DHT22;60644;55.858;37.390;2022-12-15T02:09:14;-3.40;74.33
72602;DHT22;60644;55.858;37.390;2022-12-15T02:12:04;-3.38;74.26
72602;DHT22;60644;55.858;37.390;2022-12-15T02:25:30;-3.13;73.61
72602;DHT22;60644;55.858;37.390;2022-12-15T02:28:10;-3.11;73.09
72602;DHT22;60644;55.858;37.390;2022-12-15T02:31:00;-3.08;73.18
72602;DHT22;60644;55.858;37.390;2022-12-15T02:33:53;-3.06;73.01
72602;DHT22;60644;55.858;37.390;2022-12-15T02:36:28;-3.09;72.67
72602;DHT22;60644;55.858;37.390;2022-12-15T02:38:57;-3.17;73.03
72602;DHT22;60644;55.858;37.390;2022-12-15T02:41:39;-3.15;73.12
72602;DHT22;60644;55.858;37.390;2022-12-15T02:44:12;-3.05;73.17
72602;DHT22;60644;55.858;37.390;2022-12-15T02:51:56;-3.10;72.80
72602;DHT22;60644;55.858;37.390;2022-12-15T02:57:25;-3.06;72.64
72602;DHT22;60644;55.858;37.390;2022-12-15T03:00:03;-3.07;72.44
72602;DHT22;60644;55.858;37.390;2022-12-15T03:02:32;-3.06;72.43
72602;DHT22;60644;55.858;37.390;2022-12-15T03:04:59;-3.03;72.48
72602;DHT22;60644;55.858;37.390;2022-12-15T03:07:26;-3.09;72.40
72602;DHT22;60644;55.858;37.390;2022-12-15T03:09:56;-3.02;72.51
72602;DHT22;60644;55.858;37.390;2022-12-15T03:12:23;-2.92;72.55
72602;DHT22;60644;55.858;37.390;2022-12-15T03:14:49;-2.84;72.25
72602;DHT22;60644;55.858;37.390;2022-12-15T03:17:15;-2.81;71.90
72602;DHT22;60644;55.858;37.390;2022-12-15T03:19:41;-2.80;71.51
72602;DHT22;60644;55.858;37.390;2022-12-15T03:22:07;-2.76;71.87
72602;DHT22;60644;55.858;37.390;2022-12-15T03:24:33;-2.64;72.00
72602;DHT22;60644;55.858;37.390;2022-12-15T03:26:59;-2.68;71.11
72602;DHT22;60644;55.858;37.390;2022-12-15T03:29:25;-2.69;71.64
72602;DHT22;60644;55.858;37.390;2022-12-15T03:31:51;-2.62;71.97
72602;DHT22;60644;55.858;37.390;2022-12-15T03:34:17;-2.53;72.00
72602;DHT22;60644;55.858;37.390;2022-12-15T03:36:42;-2.50;71.87
72602;DHT22;60644;55.858;37.390;2022-12-15T03:39:08;-2.42;72.13
72602;DHT22;60644;55.858;37.390;2022-12-15T03:41:34;-2.35;71.78
72602;DHT22;60644;55.858;37.390;2022-12-15T03:44:00;-2.32;71.54
72602;DHT22;60644;55.858;37.390;2022-12-15T03:46:26;-2.34;71.24
72602;DHT22;60644;55.858;37.390;2022-12-15T03:48:52;-2.34;71.28
72602;DHT22;60644;55.858;37.390;2022-12-15T03:51:19;-2.38;71.23
72602;DHT22;60644;55.858;37.390;2022-12-15T03:53:45;-2.38;71.49
72602;DHT22;60644;55.858;37.390;2022-12-15T03:56:15;-2.35;71.74
72602;DHT22;60644;55.858;37.390;2022-12-15T03:58:41;-2.41;70.80
72602;DHT22;60644;55.858;37.390;2022-12-15T04:03:45;-2.43;70.45
72602;DHT22;60644;55.858;37.390;2022-12-15T04:06:11;-2.54;70.40
72602;DHT22;60644;55.858;37.390;2022-12-15T04:08:37;-2.56;70.77
72602;DHT22;60644;55.858;37.390;2022-12-15T04:11:03;-2.57;70.64
72602;DHT22;60644;55.858;37.390;2022-12-15T04:13:29;-2.62;70.84
72602;DHT22;60644;55.858;37.390;2022-12-15T04:15:55;-2.66;70.93
72602;DHT22;60644;55.858;37.390;2022-12-15T04:18:20;-2.72;71.22
72602;DHT22;60644;55.858;37.390;2022-12-15T04:20:46;-2.73;71.53
72602;DHT22;60644;55.858;37.390;2022-12-15T04:23:12;-2.75;71.68
72602;DHT22;60644;55.858;37.390;2022-12-15T04:25:38;-2.71;71.54
72602;DHT22;60644;55.858;37.390;2022-12-15T04:28:22;-2.76;71.65
72602;DHT22;60644;55.858;37.390;2022-12-15T04:31:09;-2.77;71.72
72602;DHT22;60644;55.858;37.390;2022-12-15T04:34:01;-2.75;72.57
72602;DHT22;60644;55.858;37.390;2022-12-15T04:36:49;-2.76;72.32
72602;DHT22;60644;55.858;37.390;2022-12-15T04:39:35;-2.64;72.41
72602;DHT22;60644;55.858;37.390;2022-12-15T04:42:20;-2.62;72.25
72602;DHT22;60644;55.858;37.390;2022-12-15T04:45:05;-2.60;72.16
72602;DHT22;60644;55.858;37.390;2022-12-15T04:47:50;-2.52;72.29
72602;DHT22;60644;55.858;37.390;2022-12-15T04:50:35;-2.46;71.92
72602;DHT22;60644;55.858;37.390;2022-12-15T04:53:19;-2.46;71.67
72602;DHT22;60644;55.858;37.390;2022-12-15T04:56:09;-2.45;71.96
72602;DHT22;60644;55.858;37.390;2022-12-15T04:58:54;-2.39;71.83
72602;DHT22;60644;55.858;37.390;2022-12-15T05:01:38;-2.48;71.53
72602;DHT22;60644;55.858;37.390;2022-12-15T05:04:23;-2.54;71.64
72602;DHT22;60644;55.858;37.390;2022-12-15T05:07:07;-2.59;71.92
72602;DHT22;60644;55.858;37.390;2022-12-15T05:09:51;-2.59;72.07
72602;DHT22;60644;55.858;37.390;2022-12-15T05:12:35;-2.62;72.01
72602;DHT22;60644;55.858;37.390;2022-12-15T05:15:20;-2.56;71.92
72602;DHT22;60644;55.858;37.390;2022-12-15T05:18:04;-2.50;72.09
72602;DHT22;60644;55.858;37.390;2022-12-15T05:20:48;-2.44;72.34
72602;DHT22;60644;55.858;37.390;2022-12-15T05:23:33;-2.46;72.07
72602;DHT22;60644;55.858;37.390;2022-12-15T05:26:17;-2.46;71.83
72602;DHT22;60644;55.858;37.390;2022-12-15T05:29:02;-2.41;72.16
72602;DHT22;60644;55.858;37.390;2022-12-15T05:31:46;-2.42;71.90
72602;DHT22;60644;55.858;37.390;2022-12-15T05:34:33;-2.48;71.18
72602;DHT22;60644;55.858;37.390;2022-12-15T05:37:01;-2.48;71.17
72602;DHT22;60644;55.858;37.390;2022-12-15T05:39:28;-2.48;70.69
72602;DHT22;60644;55.858;37.390;2022-12-15T05:41:55;-2.44;71.48
72602;DHT22;60644;55.858;37.390;2022-12-15T05:44:22;-2.37;71.53
72602;DHT22;60644;55.858;37.390;2022-12-15T05:46:48;-2.33;70.99
72602;DHT22;60644;55.858;37.390;2022-12-15T05:49:16;-2.31;71.26
72602;DHT22;60644;55.858;37.390;2022-12-15T05:51:44;-2.35;70.55
72602;DHT22;60644;55.858;37.390;2022-12-15T05:54:13;-2.35;71.06
72602;DHT22;60644;55.858;37.390;2022-12-15T05:56:40;-2.37;70.55
72602;DHT22;60644;55.858;37.390;2022-12-15T05:59:05;-2.37;70.31
72602;DHT22;60644;55.858;37.390;2022-12-15T06:01:31;-2.35;70.54
72602;DHT22;60644;55.858;37.390;2022-12-15T06:03:58;-2.51;68.81
72602;DHT22;60644;55.858;37.390;2022-12-15T06:06:24;-2.72;69.19
72602;DHT22;60644;55.858;37.390;2022-12-15T06:08:50;-2.71;69.97
72602;DHT22;60644;55.858;37.390;2022-12-15T06:11:17;-2.71;70.06
72602;DHT22;60644;55.858;37.390;2022-12-15T06:13:44;-2.64;70.31
72602;DHT22;60644;55.858;37.390;2022-12-15T06:16:15;-2.59;70.49
72602;DHT22;60644;55.858;37.390;2022-12-15T06:18:44;-2.61;69.82
72602;DHT22;60644;55.858;37.390;2022-12-15T06:21:13;-2.76;70.06
72602;DHT22;60644;55.858;37.390;2022-12-15T06:23:39;-2.71;70.75
72602;DHT22;60644;55.858;37.390;2022-12-15T06:28:40;-2.72;69.90
72602;DHT22;60644;55.858;37.390;2022-12-15T06:31:08;-2.77;69.87
72602;DHT22;60644;55.858;37.390;2022-12-15T06:33:35;-2.78;69.41
72602;DHT22;60644;55.858;37.390;2022-12-15T06:36:12;-2.86;69.80
72602;DHT22;60644;55.858;37.390;2022-12-15T06:38:38;-2.83;69.94
72602;DHT22;60644;55.858;37.390;2022-12-15T06:41:06;-2.83;70.10
72602;DHT22;60644;55.858;37.390;2022-12-15T06:43:32;-2.79;70.36
72602;DHT22;60644;55.858;37.390;2022-12-15T06:45:59;-2.78;69.99
72602;DHT22;60644;55.858;37.390;2022-12-15T06:48:25;-2.72;70.42
72602;DHT22;60644;55.858;37.390;2022-12-15T06:50:51;-2.63;70.62
72602;DHT22;60644;55.858;37.390;2022-12-15T06:53:19;-2.57;70.79
72602;DHT22;60644;55.858;37.390;2022-12-15T06:55:45;-2.58;70.10
72602;DHT22;60644;55.858;37.390;2022-12-15T06:58:14;-2.60;70.04
72602;DHT22;60644;55.858;37.390;2022-12-15T07:00:42;-2.65;69.83
72602;DHT22;60644;55.858;37.390;2022-12-15T07:03:16;-2.64;70.60
72602;DHT22;60644;55.858;37.390;2022-12-15T07:05:43;-2.61;70.89
72602;DHT22;60644;55.858;37.390;2022-12-15T07:08:14;-2.65;70.44
72602;DHT22;60644;55.858;37.390;2022-12-15T07:10:42;-2.66;70.63
72602;DHT22;60644;55.858;37.390;2022-12-15T07:13:09;-2.66;71.18
72602;DHT22;60644;55.858;37.390;2022-12-15T07:15:36;-2.66;71.01
72602;DHT22;60644;55.858;37.390;2022-12-15T07:18:01;-2.67;71.40
72602;DHT22;60644;55.858;37.390;2022-12-15T07:20:27;-2.72;71.48
72602;DHT22;60644;55.858;37.390;2022-12-15T07:22:53;-2.76;71.52
72602;DHT22;60644;55.858;37.390;2022-12-15T07:25:20;-2.82;70.71
72602;DHT22;60644;55.858;37.390;2022-12-15T07:27:46;-2.91;70.95
72602;DHT22;60644;55.858;37.390;2022-12-15T07:30:13;-2.95;70.97
72602;DHT22;60644;55.858;37.390;2022-12-15T07:32:40;-2.95;70.97
72602;DHT22;60644;55.858;37.390;2022-12-15T07:35:06;-2.95;70.97
72602;DHT22;60644;55.858;37.390;2022-12-15T07:37:33;-2.97;71.05
72602;DHT22;60644;55.858;37.390;2022-12-15T07:39:59;-3.00;70.83
72602;DHT22;60644;55.858;37.390;2022-12-15T07:42:28;-3.04;70.97
72602;DHT22;60644;55.858;37.390;2022-12-15T07:44:54;-3.08;71.07
72602;DHT22;60644;55.858;37.390;2022-12-15T07:47:20;-3.11;70.35
72602;DHT22;60644;55.858;37.390;2022-12-15T07:49:46;-3.15;70.95
72602;DHT22;60644;55.858;37.390;2022-12-15T07:52:12;-3.16;71.37
72602;DHT22;60644;55.858;37.390;2022-12-15T07:54:39;-3.23;70.91
72602;DHT22;60644;55.858;37.390;2022-12-15T07:57:06;-3.30;71.23
72602;DHT22;60644;55.858;37.390;2022-12-15T07:59:35;-3.35;70.69
72602;DHT22;60644;55.858;37.390;2022-12-15T08:02:02;-3.34;71.60
72602;DHT22;60644;55.858;37.390;2022-12-15T08:04:31;-3.39;71.26
72602;DHT22;60644;55.858;37.390;2022-12-15T08:06:58;-3.50;70.66
72602;DHT22;60644;55.858;37.390;2022-12-15T08:09:23;-3.55;71.54
72602;DHT22;60644;55.858;37.390;2022-12-15T08:11:50;-3.58;71.16
72602;DHT22;60644;55.858;37.390;2022-12-15T08:14:16;-3.81;71.13
72602;DHT22;60644;55.858;37.390;2022-12-15T08:16:42;-4.09;70.81
72602;DHT22;60644;55.858;37.390;2022-12-15T08:19:11;-4.14;70.92
72602;DHT22;60644;55.858;37.390;2022-12-15T08:21:41;-4.16;71.00
72602;DHT22;60644;55.858;37.390;2022-12-15T08:24:08;-4.13;71.35
72602;DHT22;60644;55.858;37.390;2022-12-15T08:26:35;-4.30;71.02
72602;DHT22;60644;55.858;37.390;2022-12-15T08:29:07;-4.14;71.60
72602;DHT22;60644;55.858;37.390;2022-12-15T08:31:33;-4.11;71.19
72602;DHT22;60644;55.858;37.390;2022-12-15T08:34:00;-4.17;71.09
72602;DHT22;60644;55.858;37.390;2022-12-15T08:36:27;-4.15;71.17
72602;DHT22;60644;55.858;37.390;2022-12-15T08:38:55;-4.06;71.64
72602;DHT22;60644;55.858;37.390;2022-12-15T08:41:24;-4.02;70.61
72602;DHT22;60644;55.858;37.390;2022-12-15T08:43:50;-4.11;70.66
72602;DHT22;60644;55.858;37.390;2022-12-15T08:46:19;-4.09;71.05
72602;DHT22;60644;55.858;37.390;2022-12-15T08:48:45;-4.02;71.51
72602;DHT22;60644;55.858;37.390;2022-12-15T08:51:12;-4.04;71.63
72602;DHT22;60644;55.858;37.390;2022-12-15T08:53:38;-4.11;70.93
72602;DHT22;60644;55.858;37.390;2022-12-15T08:56:06;-4.19;70.90
72602;DHT22;60644;55.858;37.390;2022-12-15T08:58:32;-4.15;71.10
72602;DHT22;60644;55.858;37.390;2022-12-15T09:01:07;-4.36;71.14
72602;DHT22;60644;55.858;37.390;2022-12-15T09:03:34;-4.32;71.29
72602;DHT22;60644;55.858;37.390;2022-12-15T09:06:02;-4.23;71.54
72602;DHT22;60644;55.858;37.390;2022-12-15T09:08:28;-4.20;71.52
72602;DHT22;60644;55.858;37.390;2022-12-15T09:10:59;-4.23;70.88
72602;DHT22;60644;55.858;37.390;2022-12-15T09:13:25;-4.15;71.46
72602;DHT22;60644;55.858;37.390;2022-12-15T09:15:59;-4.06;71.70
72602;DHT22;60644;55.858;37.390;2022-12-15T09:18:25;-4.00;71.62
72602;DHT22;60644;55.858;37.390;2022-12-15T09:20:52;-3.96;71.40
72602;DHT22;60644;55.858;37.390;2022-12-15T09:23:19;-3.89;71.47
72602;DHT22;60644;55.858;37.390;2022-12-15T09:25:44;-3.84;71.48
72602;DHT22;60644;55.858;37.390;2022-12-15T09:28:12;-3.84;70.95
72602;DHT22;60644;55.858;37.390;2022-12-15T09:30:38;-3.81;71.16
72602;DHT22;60644;55.858;37.390;2022-12-15T09:33:04;-3.79;70.88
72602;DHT22;60644;55.858;37.390;2022-12-15T09:35:30;-3.78;71.10
72602;DHT22;60644;55.858;37.390;2022-12-15T09:37:56;-3.78;70.42
72602;DHT22;60644;55.858;37.390;2022-12-15T09:40:23;-3.69;70.23
72602;DHT22;60644;55.858;37.390;2022-12-15T09:42:52;-3.65;70.82
72602;DHT22;60644;55.858;37.390;2022-12-15T09:45:23;-3.67;70.39
72602;DHT22;60644;55.858;37.390;2022-12-15T09:48:09;-3.67;70.93
72602;DHT22;60644;55.858;37.390;2022-12-15T09:50:38;-3.72;70.52
72602;DHT22;60644;55.858;37.390;2022-12-15T09:53:10;-3.71;70.62
72602;DHT22;60644;55.858;37.390;2022-12-15T09:55:37;-3.65;71.00
72602;DHT22;60644;55.858;37.390;2022-12-15T10:06:48;-3.61;69.99
72602;DHT22;60644;55.858;37.390;2022-12-15T10:09:16;-3.51;70.39
72602;DHT22;60644;55.858;37.390;2022-12-15T10:11:50;-3.41;70.55
72602;DHT22;60644;55.858;37.390;2022-12-15T10:17:24;-3.38;69.01
72602;DHT22;60644;55.858;37.390;2022-12-15T10:22:33;-3.37;69.32
72602;DHT22;60644;55.858;37.390;2022-12-15T10:25:18;-3.45;68.65
72602;DHT22;60644;55.858;37.390;2022-12-15T10:30:33;-3.26;69.87
72602;DHT22;60644;55.858;37.390;2022-12-15T10:33:10;-3.19;69.49
72602;DHT22;60644;55.858;37.390;2022-12-15T10:35:41;-3.12;69.28
72602;DHT22;60644;55.858;37.390;2022-12-15T10:38:37;-3.05;69.49
72602;DHT22;60644;55.858;37.390;2022-12-15T10:41:22;-2.93;69.69
72602;DHT22;60644;55.858;37.390;2022-12-15T10:43:51;-2.94;68.76
72602;DHT22;60644;55.858;37.390;2022-12-15T10:46:28;-2.98;68.83
72602;DHT22;60644;55.858;37.390;2022-12-15T10:51:36;-3.04;68.20
72602;DHT22;60644;55.858;37.390;2022-12-15T10:54:12;-3.04;68.88
72602;DHT22;60644;55.858;37.390;2022-12-15T10:56:50;-2.97;69.63
72602;DHT22;60644;55.858;37.390;2022-12-15T10:59:33;-2.93;69.76
72602;DHT22;60644;55.858;37.390;2022-12-15T11:02:27;-2.83;70.07
72602;DHT22;60644;55.858;37.390;2022-12-15T11:07:32;-2.78;69.61
72602;DHT22;60644;55.858;37.390;2022-12-15T11:10:00;-2.75;69.78
72602;DHT22;60644;55.858;37.390;2022-12-15T11:12:29;-2.77;69.94
72602;DHT22;60644;55.858;37.390;2022-12-15T11:18:07;-2.86;68.13
72602;DHT22;60644;55.858;37.390;2022-12-15T11:20:45;-2.94;68.68
72602;DHT22;60644;55.858;37.390;2022-12-15T11:23:22;-3.00;68.59
72602;DHT22;60644;55.858;37.390;2022-12-15T11:25:58;-3.08;68.24
72602;DHT22;60644;55.858;37.390;2022-12-15T11:28:45;-3.10;68.97
72602;DHT22;60644;55.858;37.390;2022-12-15T11:31:16;-3.16;68.75
72602;DHT22;60644;55.858;37.390;2022-12-15T11:33:42;-3.15;69.53
72602;DHT22;60644;55.858;37.390;2022-12-15T11:38:49;-3.12;70.00
72602;DHT22;60644;55.858;37.390;2022-12-15T11:41:56;-3.09;69.71
72602;DHT22;60644;55.858;37.390;2022-12-15T11:44:29;-3.06;68.96
72602;DHT22;60644;55.858;37.390;2022-12-15T11:54:53;-2.92;68.91
72602;DHT22;60644;55.858;37.390;2022-12-15T11:57:52;-2.93;69.31
72602;DHT22;60644;55.858;37.390;2022-12-15T12:00:20;-2.92;68.91
72602;DHT22;60644;55.858;37.390;2022-12-15T12:03:09;-2.89;69.51
72602;DHT22;60644;55.858;37.390;2022-12-15T12:06:15;-2.84;68.94
72602;DHT22;60644;55.858;37.390;2022-12-15T12:08:59;-2.86;68.52
72602;DHT22;60644;55.858;37.390;2022-12-15T12:11:34;-2.89;67.96
72602;DHT22;60644;55.858;37.390;2022-12-15T12:17:04;-2.95;67.92
72602;DHT22;60644;55.858;37.390;2022-12-15T12:19:42;-2.98;68.36
72602;DHT22;60644;55.858;37.390;2022-12-15T12:22:22;-2.97;68.50
72602;DHT22;60644;55.858;37.390;2022-12-15T12:30:15;-2.98;67.17
72602;DHT22;60644;55.858;37.390;2022-12-15T12:32:45;-2.98;67.95
72602;DHT22;60644;55.858;37.390;2022-12-15T12:35:20;-2.94;68.53
72602;DHT22;60644;55.858;37.390;2022-12-15T12:37:51;-2.90;68.79
72602;DHT22;60644;55.858;37.390;2022-12-15T12:40:27;-2.82;68.97
72602;DHT22;60644;55.858;37.390;2022-12-15T12:42:57;-2.88;66.64
72602;DHT22;60644;55.858;37.390;2022-12-15T12:45:27;-2.93;66.37
72602;DHT22;60644;55.858;37.390;2022-12-15T12:47:56;-2.97;67.14
72602;DHT22;60644;55.858;37.390;2022-12-15T12:50:26;-2.97;67.94
72602;DHT22;60644;55.858;37.390;2022-12-15T12:52:57;-2.96;68.19
72602;DHT22;60644;55.858;37.390;2022-12-15T12:55:38;-2.94;68.25
72602;DHT22;60644;55.858;37.390;2022-12-15T12:58:38;-2.96;66.62
72602;DHT22;60644;55.858;37.390;2022-12-15T13:01:18;-2.95;67.72
72602;DHT22;60644;55.858;37.390;2022-12-15T13:03:45;-2.91;67.81
72602;DHT22;60644;55.858;37.390;2022-12-15T13:17:29;-2.90;65.02
72602;DHT22;60644;55.858;37.390;2022-12-15T13:22:40;-2.88;65.78
72602;DHT22;60644;55.858;37.390;2022-12-15T13:25:42;-2.82;66.01
72602;DHT22;60644;55.858;37.390;2022-12-15T13:28:38;-2.88;65.84
72602;DHT22;60644;55.858;37.390;2022-12-15T13:44:36;-2.88;66.36
72602;DHT22;60644;55.858;37.390;2022-12-15T13:47:21;-2.88;64.99
72602;DHT22;60644;55.858;37.390;2022-12-15T13:50:16;-2.87;65.09
72602;DHT22;60644;55.858;37.390;2022-12-15T13:52:54;-2.88;65.22
72602;DHT22;60644;55.858;37.390;2022-12-15T13:55:23;-2.84;64.54
72602;DHT22;60644;55.858;37.390;2022-12-15T13:58:00;-2.79;66.03
72602;DHT22;60644;55.858;37.390;2022-12-15T14:00:28;-2.79;65.69
72602;DHT22;60644;55.858;37.390;2022-12-15T14:03:10;-2.82;63.86
72602;DHT22;60644;55.858;37.390;2022-12-15T14:05:37;-2.79;64.91
72602;DHT22;60644;55.858;37.390;2022-12-15T14:08:12;-2.81;65.48
72602;DHT22;60644;55.858;37.390;2022-12-15T14:10:47;-2.81;65.71
72602;DHT22;60644;55.858;37.390;2022-12-15T14:13:17;-2.80;65.06
72602;DHT22;60644;55.858;37.390;2022-12-15T14:15:48;-2.77;65.59
72602;DHT22;60644;55.858;37.390;2022-12-15T14:20:49;-2.81;64.76
72602;DHT22;60644;55.858;37.390;2022-12-15T14:23:20;-2.83;64.87
72602;DHT22;60644;55.858;37.390;2022-12-15T14:26:05;-2.89;65.42
72602;DHT22;60644;55.858;37.390;2022-12-15T14:28:35;-2.94;65.27
72602;DHT22;60644;55.858;37.390;2022-12-15T14:31:05;-3.00;64.91
72602;DHT22;60644;55.858;37.390;2022-12-15T14:33:36;-3.02;65.88
72602;DHT22;60644;55.858;37.390;2022-12-15T14:36:07;-3.05;65.69
72602;DHT22;60644;55.858;37.390;2022-12-15T14:38:44;-2.98;65.24
72602;DHT22;60644;55.858;37.390;2022-12-15T14:41:21;-2.96;64.61
72602;DHT22;60644;55.858;37.390;2022-12-15T14:43:48;-2.98;64.18
72602;DHT22;60644;55.858;37.390;2022-12-15T14:46:21;-3.06;64.96
72602;DHT22;60644;55.858;37.390;2022-12-15T14:48:54;-3.05;64.70
72602;DHT22;60644;55.858;37.390;2022-12-15T14:51:22;-3.04;65.50
72602;DHT22;60644;55.858;37.390;2022-12-15T14:53:51;-3.03;63.73
72602;DHT22;60644;55.858;37.390;2022-12-15T14:59:00;-2.91;65.40
72602;DHT22;60644;55.858;37.390;2022-12-15T15:01:36;-2.91;63.85
72602;DHT22;60644;55.858;37.390;2022-12-15T15:06:55;-2.91;64.56
72602;DHT22;60644;55.858;37.390;2022-12-15T15:09:39;-2.97;64.14
72602;DHT22;60644;55.858;37.390;2022-12-15T15:12:08;-3.11;63.59
72602;DHT22;60644;55.858;37.390;2022-12-15T15:14:59;-3.22;63.85
72602;DHT22;60644;55.858;37.390;2022-12-15T15:17:35;-3.33;64.01
72602;DHT22;60644;55.858;37.390;2022-12-15T15:20:05;-3.47;64.57
72602;DHT22;60644;55.858;37.390;2022-12-15T15:22:36;-3.54;67.51
72602;DHT22;60644;55.858;37.390;2022-12-15T15:30:43;-3.85;69.43
72602;DHT22;60644;55.858;37.390;2022-12-15T15:33:10;-3.95;71.96
72602;DHT22;60644;55.858;37.390;2022-12-15T15:35:39;-4.01;72.04
72602;DHT22;60644;55.858;37.390;2022-12-15T15:38:20;-4.07;73.06
72602;DHT22;60644;55.858;37.390;2022-12-15T15:40:52;-4.12;74.24
72602;DHT22;60644;55.858;37.390;2022-12-15T15:43:19;-4.10;74.83
72602;DHT22;60644;55.858;37.390;2022-12-15T15:45:47;-4.05;74.71
72602;DHT22;60644;55.858;37.390;2022-12-15T15:48:22;-3.95;74.27
72602;DHT22;60644;55.858;37.390;2022-12-15T15:50:49;-3.91;73.47
72602;DHT22;60644;55.858;37.390;2022-12-15T15:53:19;-3.99;74.38
72602;DHT22;60644;55.858;37.390;2022-12-15T15:55:47;-3.96;74.36
72602;DHT22;60644;55.858;37.390;2022-12-15T15:58:15;-3.96;73.97
72602;DHT22;60644;55.858;37.390;2022-12-15T16:00:41;-4.01;73.70
72602;DHT22;60644;55.858;37.390;2022-12-15T16:03:08;-3.98;74.01
72602;DHT22;60644;55.858;37.390;2022-12-15T16:05:34;-3.99;73.60
72602;DHT22;60644;55.858;37.390;2022-12-15T16:08:02;-3.99;73.79
72602;DHT22;60644;55.858;37.390;2022-12-15T16:10:28;-4.00;73.64
72602;DHT22;60644;55.858;37.390;2022-12-15T16:12:57;-4.06;73.98
72602;DHT22;60644;55.858;37.390;2022-12-15T16:15:27;-3.99;73.76
72602;DHT22;60644;55.858;37.390;2022-12-15T16:17:54;-4.01;73.51
72602;DHT22;60644;55.858;37.390;2022-12-15T16:20:22;-3.98;73.33
72602;DHT22;60644;55.858;37.390;2022-12-15T16:22:53;-3.97;73.15
72602;DHT22;60644;55.858;37.390;2022-12-15T16:25:27;-3.96;73.34
72602;DHT22;60644;55.858;37.390;2022-12-15T16:27:53;-3.94;73.35
72602;DHT22;60644;55.858;37.390;2022-12-15T16:30:23;-3.94;73.09
72602;DHT22;60644;55.858;37.390;2022-12-15T16:32:50;-3.93;73.16
72602;DHT22;60644;55.858;37.390;2022-12-15T16:35:17;-3.96;73.18
72602;DHT22;60644;55.858;37.390;2022-12-15T16:37:44;-4.00;73.54
72602;DHT22;60644;55.858;37.390;2022-12-15T16:42:40;-4.06;74.17
72602;DHT22;60644;55.858;37.390;2022-12-15T16:45:16;-4.15;75.44
72602;DHT22;60644;55.858;37.390;2022-12-15T16:47:44;-4.17;76.35
72602;DHT22;60644;55.858;37.390;2022-12-15T16:50:18;-4.19;76.21
72602;DHT22;60644;55.858;37.390;2022-12-15T16:52:47;-4.24;78.36
72602;DHT22;60644;55.858;37.390;2022-12-15T16:55:25;-4.21;78.69
72602;DHT22;60644;55.858;37.390;2022-12-15T16:57:54;-4.20;79.13
72602;DHT22;60644;55.858;37.390;2022-12-15T17:00:24;-4.22;78.83
72602;DHT22;60644;55.858;37.390;2022-12-15T17:02:51;-4.11;78.82
72602;DHT22;60644;55.858;37.390;2022-12-15T17:05:18;-4.01;78.69
72602;DHT22;60644;55.858;37.390;2022-12-15T17:07:51;-3.95;78.41
72602;DHT22;60644;55.858;37.390;2022-12-15T17:10:21;-3.89;77.77
72602;DHT22;60644;55.858;37.390;2022-12-15T17:12:48;-3.84;77.25
72602;DHT22;60644;55.858;37.390;2022-12-15T17:15:20;-3.77;77.03
72602;DHT22;60644;55.858;37.390;2022-12-15T17:17:47;-3.81;76.82
72602;DHT22;60644;55.858;37.390;2022-12-15T17:20:21;-3.80;76.55
72602;DHT22;60644;55.858;37.390;2022-12-15T17:22:53;-3.82;76.24
72602;DHT22;60644;55.858;37.390;2022-12-15T17:25:25;-3.84;75.83
72602;DHT22;60644;55.858;37.390;2022-12-15T17:27:52;-3.85;76.09
72602;DHT22;60644;55.858;37.390;2022-12-15T17:30:21;-3.90;75.06
72602;DHT22;60644;55.858;37.390;2022-12-15T17:32:48;-3.89;76.10
72602;DHT22;60644;55.858;37.390;2022-12-15T17:35:15;-3.84;75.95
72602;DHT22;60644;55.858;37.390;2022-12-15T17:37:41;-3.85;75.10
72602;DHT22;60644;55.858;37.390;2022-12-15T17:40:28;-3.89;74.49